Time;durP1;ratioP1;P1;durP2;ratioP2;P2;SDS_P1;SDS_P2;PMS_P1;PMS_P2;Temp;Humidity;BMP_temperature;BMP_pressure;BME280_temperature;BME280_humidity;BME280_pressure;Samples;Min_cycle;Max_cycle;Signal;HPM_P1;HPM_P2
2023/12/19 00:00:12;;;;;;;43.38;28.88;;;;;;;-0.34;100.00;97561.38;5088595;28;20024;-68
2023/12/19 00:02:39;;;;;;;36.63;25.65;;;;;;;-0.41;100.00;97558.97;5086911;28;20021;-68
2023/12/19 00:05:08;;;;;;;36.25;23.05;;;;;;;-0.47;100.00;97560.75;5096555;28;20099;-67
2023/12/19 00:07:34;;;;;;;46.97;28.25;;;;;;;-0.54;100.00;97563.53;5088193;28;20034;-68
2023/12/19 00:09:59;;;;;;;63.70;35.42;;;;;;;-0.56;100.00;97558.34;5093803;28;20031;-68
2023/12/19 00:12:25;;;;;;;37.60;23.98;;;;;;;-0.52;100.00;97561.75;5087618;28;20028;-68
2023/12/19 00:14:50;;;;;;;32.72;21.88;;;;;;;-0.44;100.00;97558.16;5088497;28;20502;-68
2023/12/19 00:17:16;;;;;;;33.60;22.50;;;;;;;-0.40;100.00;97556.34;5095071;28;20032;-68
2023/12/19 00:19:41;;;;;;;46.97;29.15;;;;;;;-0.45;100.00;97540.03;5095075;28;20076;-68
2023/12/19 00:22:06;;;;;;;43.80;28.27;;;;;;;-0.53;100.00;97550.53;5094167;28;20047;-68
2023/12/19 00:24:32;;;;;;;35.15;24.52;;;;;;;-0.53;100.00;97545.34;5085863;28;20560;-67
2023/12/19 00:26:57;;;;;;;42.60;28.10;;;;;;;-0.56;100.00;97544.56;5095103;28;20114;-66
2023/12/19 00:29:22;;;;;;;41.75;26.40;;;;;;;-0.58;100.00;97537.66;5087441;28;20055;-67
2023/12/19 00:31:48;;;;;;;35.60;22.80;;;;;;;-0.53;100.00;97544.53;5094033;28;20457;-67
2023/12/19 00:34:15;;;;;;;33.00;23.63;;;;;;;-0.54;100.00;97543.66;5088445;28;20397;-66
2023/12/19 00:36:40;;;;;;;44.60;30.60;;;;;;;-0.54;100.00;97537.66;5091031;28;20431;-66
2023/12/19 00:39:06;;;;;;;72.53;43.42;;;;;;;-0.49;100.00;97538.41;5094176;28;20024;-67
2023/12/19 00:41:31;;;;;;;57.42;35.67;;;;;;;-0.54;100.00;97538.47;5091117;28;20181;-66
2023/12/19 00:43:56;;;;;;;44.72;29.13;;;;;;;-0.58;100.00;97531.66;5095813;28;20039;-66
2023/12/19 00:46:22;;;;;;;37.75;24.60;;;;;;;-0.64;100.00;97529.19;5090741;28;20411;-67
2023/12/19 00:48:47;;;;;;;36.22;22.17;;;;;;;-0.71;100.00;97525.84;5093532;28;20465;-66
2023/12/19 00:51:13;;;;;;;33.30;22.25;;;;;;;-0.72;100.00;97526.75;5086249;28;20056;-66
2023/12/19 00:53:39;;;;;;;29.60;21.83;;;;;;;-0.73;100.00;97519.84;5091056;28;20099;-67
2023/12/19 00:56:07;;;;;;;30.38;21.42;;;;;;;-0.73;100.00;97518.09;5096054;28;20071;-67
2023/12/19 00:58:33;;;;;;;27.65;19.52;;;;;;;-0.73;100.00;97515.53;5089783;28;20028;-67
2023/12/19 01:00:58;;;;;;;29.35;20.40;;;;;;;-0.78;100.00;97529.41;5093670;28;20025;-67
2023/12/19 01:03:24;;;;;;;27.15;19.38;;;;;;;-0.82;100.00;97520.88;5085369;28;20909;-68
2023/12/19 01:05:49;;;;;;;23.85;18.92;;;;;;;-0.84;100.00;97529.53;5090493;28;20034;-67
2023/12/19 01:08:14;;;;;;;27.02;18.88;;;;;;;-0.92;100.00;97520.19;5089849;28;20032;-67
2023/12/19 01:10:40;;;;;;;29.42;21.42;;;;;;;-0.96;100.00;97525.41;5088269;28;20056;-67
2023/12/19 01:13:05;;;;;;;27.65;19.25;;;;;;;-1.01;100.00;97515.13;5092882;28;20016;-67
2023/12/19 01:15:30;;;;;;;28.67;19.65;;;;;;;-1.04;100.00;97503.13;5089759;28;20103;-67
2023/12/19 01:17:56;;;;;;;31.38;21.02;;;;;;;-1.03;100.00;97503.97;5092651;28;20039;-67
2023/12/19 01:20:21;;;;;;;29.60;22.50;;;;;;;-1.03;100.00;97498.81;5092066;28;20126;-67
2023/12/19 01:22:47;;;;;;;31.88;21.52;;;;;;;-1.02;100.00;97500.50;5087855;28;20107;-67
2023/12/19 01:25:12;;;;;;;29.30;20.50;;;;;;;-1.00;100.00;97493.56;5090478;28;20029;-68
2023/12/19 01:27:37;;;;;;;27.55;18.17;;;;;;;-0.99;100.00;97495.31;5088806;28;20028;-67
2023/12/19 01:30:03;;;;;;;29.38;20.23;;;;;;;-1.03;100.00;97496.22;5093698;28;20111;-67
2023/12/19 01:32:28;;;;;;;28.40;19.05;;;;;;;-1.05;100.00;97492.81;5093592;28;20169;-67
2023/12/19 01:34:54;;;;;;;26.88;18.40;;;;;;;-1.06;100.00;97488.50;5090362;28;20034;-68
2023/12/19 01:37:19;;;;;;;26.52;18.10;;;;;;;-1.05;100.00;97493.69;5090686;28;20171;-68
2023/12/19 01:39:44;;;;;;;26.17;18.58;;;;;;;-1.04;100.00;97495.38;5091829;28;20035;-68
2023/12/19 01:42:10;;;;;;;50.47;25.75;;;;;;;-1.03;100.00;97499.66;5090839;28;20032;-68
2023/12/19 01:44:35;;;;;;;37.72;22.95;;;;;;;-1.03;100.00;97503.97;5090527;28;20472;-68
2023/12/19 01:47:01;;;;;;;39.78;21.90;;;;;;;-1.04;100.00;97502.25;5089165;28;20558;-68
2023/12/19 01:49:27;;;;;;;31.10;19.20;;;;;;;-1.08;100.00;97503.22;5085169;28;20074;-68
2023/12/19 01:51:52;;;;;;;32.45;20.40;;;;;;;-1.09;100.00;97504.09;5092893;28;20073;-68
2023/12/19 01:54:20;;;;;;;25.95;17.17;;;;;;;-1.17;100.00;97502.50;5086031;28;20020;-68
2023/12/19 01:56:46;;;;;;;27.00;18.70;;;;;;;-1.17;100.00;97505.06;5091939;28;20122;-68
2023/12/19 01:59:13;;;;;;;29.13;18.58;;;;;;;-1.17;100.00;97505.06;5093101;28;20024;-68
2023/12/19 02:01:38;;;;;;;32.53;18.35;;;;;;;-1.17;100.00;97501.63;5087185;28;20029;-68
2023/12/19 02:04:04;;;;;;;29.48;17.92;;;;;;;-1.21;100.00;97511.19;5089343;28;20058;-68
2023/12/19 02:06:33;;;;;;;28.20;17.23;;;;;;;-1.27;100.00;97500.06;5088479;28;20017;-68
2023/12/19 02:08:59;;;;;;;31.92;20.65;;;;;;;-1.33;100.00;97498.44;5088975;28;20306;-68
2023/12/19 02:11:24;;;;;;;35.55;20.67;;;;;;;-1.33;100.00;97504.47;5091080;28;20040;-68
2023/12/19 02:13:50;;;;;;;30.13;18.30;;;;;;;-1.32;100.00;97493.25;5085819;28;20027;-68
2023/12/19 02:16:15;;;;;;;29.10;16.83;;;;;;;-1.32;100.00;97490.66;5089426;28;20583;-68
2023/12/19 02:18:43;;;;;;;29.00;17.35;;;;;;;-1.29;100.00;97482.00;5091285;28;20040;-68
2023/12/19 02:21:08;;;;;;;26.15;17.73;;;;;;;-1.21;100.00;97480.16;5090860;28;20020;-68
2023/12/19 02:23:33;;;;;;;26.67;17.75;;;;;;;-1.20;100.00;97478.41;5088766;28;20035;-68
2023/12/19 02:25:59;;;;;;;28.67;17.48;;;;;;;-1.24;100.00;97469.84;5088649;28;20530;-68
2023/12/19 02:28:24;;;;;;;24.10;16.45;;;;;;;-1.26;100.00;97460.44;5086624;28;20024;-68
2023/12/19 02:30:50;;;;;;;22.85;16.17;;;;;;;-1.24;100.00;97454.34;5091255;28;20041;-68
2023/12/19 02:33:15;;;;;;;19.17;14.23;;;;;;;-1.22;100.00;97451.75;5089119;28;20024;-68
2023/12/19 02:35:41;;;;;;;20.33;15.30;;;;;;;-1.24;100.00;97444.00;5092428;28;20439;-68
2023/12/19 02:38:06;;;;;;;19.13;13.07;;;;;;;-1.25;100.00;97436.28;5091405;28;20034;-68
2023/12/19 02:40:32;;;;;;;22.83;14.88;;;;;;;-1.31;100.00;97434.66;5088877;28;20145;-68
2023/12/19 02:42:57;;;;;;;19.90;13.88;;;;;;;-1.37;100.00;97430.44;5085362;28;20021;-68
2023/12/19 02:45:23;;;;;;;18.95;12.68;;;;;;;-1.35;100.00;97420.91;5084163;28;20529;-68
2023/12/19 02:47:48;;;;;;;16.45;12.63;;;;;;;-1.33;100.00;97423.50;5088288;28;20029;-68
2023/12/19 02:50:14;;;;;;;17.20;12.82;;;;;;;-1.34;100.00;97412.28;5085236;28;20028;-68
2023/12/19 02:52:39;;;;;;;13.73;8.88;;;;;;;-1.07;100.00;97417.88;5082323;28;20020;-68
2023/12/19 02:55:05;;;;;;;15.05;9.35;;;;;;;-0.97;100.00;97413.38;5084374;28;20444;-68
2023/12/19 02:57:31;;;;;;;12.63;9.23;;;;;;;-0.96;100.00;97407.34;5090737;28;20059;-68
2023/12/19 02:59:56;;;;;;;14.15;9.73;;;;;;;-1.05;100.00;97407.50;5085285;28;20116;-68
2023/12/19 03:02:21;;;;;;;15.02;9.32;;;;;;;-1.10;100.00;97404.16;5091332;28;20027;-68
2023/12/19 03:04:47;;;;;;;12.43;8.90;;;;;;;-1.02;100.00;97402.25;5089168;28;20024;-69
2023/12/19 03:07:12;;;;;;;18.85;9.48;;;;;;;-0.96;100.00;97403.88;5085486;28;20111;-68
2023/12/19 03:09:37;;;;;;;18.88;9.40;;;;;;;-1.00;100.00;97395.31;5088389;28;20028;-68
2023/12/19 03:12:05;;;;;;;13.63;8.55;;;;;;;-1.04;100.00;97394.53;5088310;28;20011;-68
2023/12/19 03:14:32;;;;;;;15.35;8.57;;;;;;;-1.06;100.00;97405.78;5084163;28;20705;-68
2023/12/19 03:16:57;;;;;;;12.43;7.93;;;;;;;-1.13;100.00;97410.22;5088343;28;20028;-68
2023/12/19 03:19:23;;;;;;;17.85;7.55;;;;;;;-1.18;100.00;97412.03;5090021;28;20040;-68
2023/12/19 03:21:48;;;;;;;13.02;8.05;;;;;;;-1.16;100.00;97402.50;5086957;28;20420;-68
2023/12/19 03:24:14;;;;;;;11.32;7.65;;;;;;;-1.16;100.00;97416.31;5087360;28;20077;-68
2023/12/19 03:26:39;;;;;;;12.02;7.60;;;;;;;-1.21;100.00;97418.13;5084306;28;20027;-68
2023/12/19 03:29:04;;;;;;;11.40;6.95;;;;;;;-1.26;100.00;97414.75;5087565;28;20110;-69
2023/12/19 03:31:30;;;;;;;10.73;7.38;;;;;;;-1.28;100.00;97416.50;5087154;28;20028;-68
2023/12/19 03:33:56;;;;;;;9.25;6.75;;;;;;;-1.32;100.00;97418.31;5070787;28;20028;-68
2023/12/19 03:36:21;;;;;;;9.52;7.47;;;;;;;-1.33;100.00;97413.16;5085968;28;20024;-68
2023/12/19 03:38:47;;;;;;;11.10;8.23;;;;;;;-1.36;100.00;97408.88;5087586;28;20046;-68
2023/12/19 03:41:12;;;;;;;14.65;9.95;;;;;;;-1.40;100.00;97403.81;5089802;28;20762;-68
2023/12/19 03:43:37;;;;;;;16.10;9.88;;;;;;;-1.39;100.00;97400.34;5089648;28;20054;-68
2023/12/19 03:46:04;;;;;;;15.48;9.40;;;;;;;-1.38;100.00;97402.06;5085749;28;20073;-68
2023/12/19 03:48:30;;;;;;;14.15;9.48;;;;;;;-1.36;100.00;97395.97;5091469;28;20056;-68
2023/12/19 03:50:56;;;;;;;11.95;8.85;;;;;;;-1.38;100.00;97386.56;5088055;28;20020;-69
2023/12/19 03:53:22;;;;;;;11.25;8.52;;;;;;;-1.38;100.00;97378.78;5089540;28;20019;-68
2023/12/19 03:55:48;;;;;;;10.93;8.27;;;;;;;-1.36;100.00;97377.88;5092126;28;20027;-68
2023/12/19 03:58:13;;;;;;;10.95;7.63;;;;;;;-1.37;100.00;97372.75;5093297;28;20628;-68
2023/12/19 04:00:38;;;;;;;9.48;7.20;;;;;;;-1.40;100.00;97372.81;5092564;28;20095;-68
2023/12/19 04:03:04;;;;;;;10.18;7.03;;;;;;;-1.42;100.00;97361.66;5094934;28;20077;-68
2023/12/19 04:05:29;;;;;;;12.02;7.63;;;;;;;-1.43;100.00;97354.78;5089061;28;20028;-68
2023/12/19 04:07:55;;;;;;;12.43;7.65;;;;;;;-1.44;100.00;97353.91;5085304;28;20023;-68
2023/12/19 04:10:20;;;;;;;10.00;7.25;;;;;;;-1.45;100.00;97352.22;5091334;28;20051;-68
2023/12/19 04:12:46;;;;;;;14.65;7.72;;;;;;;-1.42;100.00;97340.97;5088949;28;20095;-68
2023/12/19 04:15:11;;;;;;;13.95;7.93;;;;;;;-1.38;100.00;97346.03;5090129;28;20020;-68
2023/12/19 04:17:37;;;;;;;17.75;9.23;;;;;;;-1.30;100.00;97348.50;5089938;28;20031;-68
2023/12/19 04:20:03;;;;;;;8.57;6.07;;;;;;;-1.10;100.00;97344.69;5088954;28;20140;-68
2023/12/19 04:22:30;;;;;;;7.22;6.22;;;;;;;-0.91;100.00;97348.63;5090629;28;20020;-68
2023/12/19 04:24:55;;;;;;;9.65;6.13;;;;;;;-0.99;100.00;97345.34;5089882;28;20025;-68
2023/12/19 04:27:21;;;;;;;9.80;6.85;;;;;;;-1.10;100.00;97342.09;5084627;28;20074;-68
2023/12/19 04:29:46;;;;;;;19.02;13.02;;;;;;;-1.13;100.00;97347.34;5089065;28;20052;-68
2023/12/19 04:32:15;;;;;;;7.90;5.40;;;;;;;-0.96;100.00;97345.28;5092246;28;20020;-69
2023/12/19 04:34:41;;;;;;;6.03;5.28;;;;;;;-0.97;100.00;97347.88;5092777;28;20044;-68
2023/12/19 04:37:06;;;;;;;5.60;5.10;;;;;;;-0.86;100.00;97351.13;5090093;28;20067;-68
2023/12/19 04:39:31;;;;;;;7.53;5.15;;;;;;;-0.69;100.00;97343.00;5090815;28;20100;-68
2023/12/19 04:41:59;;;;;;;6.55;5.07;;;;;;;-0.80;100.00;97348.41;5092123;28;20052;-68
2023/12/19 04:44:24;;;;;;;5.55;5.05;;;;;;;-0.93;100.00;97345.22;5091120;28;20024;-68
2023/12/19 04:46:50;;;;;;;5.35;4.85;;;;;;;-1.04;100.00;97352.31;5094804;28;20108;-68
2023/12/19 04:49:16;;;;;;;5.15;4.57;;;;;;;-1.13;100.00;97344.75;5093262;28;20574;-68
2023/12/19 04:51:41;;;;;;;8.27;6.40;;;;;;;-1.16;100.00;97349.09;5085133;28;20021;-68
2023/12/19 04:54:08;;;;;;;11.75;9.13;;;;;;;-1.11;100.00;97350.75;5089229;28;20052;-68
2023/12/19 04:56:37;;;;;;;7.40;6.70;;;;;;;-1.10;100.00;97357.63;5091965;28;20031;-68
2023/12/19 04:59:02;;;;;;;12.15;6.95;;;;;;;-1.15;100.00;97355.09;5089947;28;20020;-68
2023/12/19 05:01:28;;;;;;;7.97;7.15;;;;;;;-1.21;100.00;97356.09;5091713;28;20536;-68
2023/12/19 05:03:53;;;;;;;6.75;6.15;;;;;;;-1.32;100.00;97364.03;5090078;28;20036;-69
2023/12/19 05:06:18;;;;;;;10.15;7.28;;;;;;;-1.37;100.00;97359.81;5095318;28;20028;-68
2023/12/19 05:08:45;;;;;;;13.60;7.80;;;;;;;-1.39;100.00;97359.84;5092230;28;20020;-68
2023/12/19 05:11:10;;;;;;;11.85;8.40;;;;;;;-1.42;100.00;97359.06;5083142;28;20096;-68
2023/12/19 05:13:36;;;;;;;12.15;8.40;;;;;;;-1.47;100.00;97359.97;5094951;28;20055;-68
2023/12/19 05:16:15;;;;;;;15.00;10.30;;;;;;;-1.37;100.00;97359.81;5094698;28;20020;-68
2023/12/19 05:18:42;;;;;;;22.80;14.32;;;;;;;-1.34;100.00;97352.84;5095812;28;20075;-68
2023/12/19 05:21:08;;;;;;;14.95;10.70;;;;;;;-1.39;100.00;97359.00;5095027;28;20045;-68
2023/12/19 05:23:38;;;;;;;13.65;10.88;;;;;;;-1.42;100.00;97353.91;5077971;28;20466;-68
2023/12/19 05:26:04;;;;;;;18.65;9.80;;;;;;;-1.48;100.00;97342.75;5094831;28;20034;-68
2023/12/19 05:28:30;;;;;;;16.83;11.25;;;;;;;-1.51;100.00;97348.00;5087956;28;20107;-68
2023/12/19 05:30:56;;;;;;;14.52;10.48;;;;;;;-1.53;100.00;97347.16;5091158;28;20036;-68
2023/12/19 05:33:26;;;;;;;18.33;11.13;;;;;;;-1.58;100.00;97344.66;5087414;28;20021;-68
2023/12/19 05:35:52;;;;;;;13.77;10.85;;;;;;;-1.61;100.00;97344.72;5092434;28;20073;-68
2023/12/19 05:38:18;;;;;;;13.65;9.73;;;;;;;-1.66;100.00;97338.78;5092055;28;20043;-68
2023/12/19 05:40:44;;;;;;;11.82;8.63;;;;;;;-1.66;100.00;97337.91;5093489;28;20141;-68
2023/12/19 05:43:09;;;;;;;14.45;8.48;;;;;;;-1.67;100.00;97331.03;5091233;28;20456;-68
2023/12/19 05:45:35;;;;;;;13.00;8.38;;;;;;;-1.67;100.00;97334.50;5095031;28;20030;-69
2023/12/19 05:48:00;;;;;;;11.93;8.95;;;;;;;-1.71;100.00;97326.81;5092617;28;20023;-68
2023/12/19 05:50:26;;;;;;;14.70;9.50;;;;;;;-1.69;100.00;97328.50;5073617;28;20024;-68
2023/12/19 05:52:52;;;;;;;16.88;10.70;;;;;;;-1.70;100.00;97337.13;5093807;28;20084;-68
2023/12/19 05:55:19;;;;;;;12.95;10.45;;;;;;;-1.69;100.00;97325.06;5095726;28;20020;-68
2023/12/19 05:57:44;;;;;;;15.35;10.48;;;;;;;-1.48;100.00;97326.44;5092268;28;20085;-68
2023/12/19 06:00:10;;;;;;;14.75;12.70;;;;;;;-1.47;100.00;97313.47;5094152;28;20480;-68
2023/12/19 06:02:35;;;;;;;16.88;14.20;;;;;;;-1.43;100.00;97314.28;5093734;28;20035;-68
2023/12/19 06:05:02;;;;;;;13.52;11.20;;;;;;;-1.48;100.00;97314.34;5071798;28;20012;-68
2023/12/19 06:07:27;;;;;;;14.68;12.95;;;;;;;-1.55;100.00;97317.94;5094659;28;20024;-69
2023/12/19 06:09:52;;;;;;;14.80;13.23;;;;;;;-1.59;100.00;97318.88;5092849;28;20043;-68
2023/12/19 06:12:18;;;;;;;15.50;11.73;;;;;;;-1.60;100.00;97317.16;5090672;28;20055;-69
2023/12/19 06:14:44;;;;;;;12.07;10.85;;;;;;;-1.64;100.00;97320.69;5092814;28;20019;-68
2023/12/19 06:17:09;;;;;;;13.82;11.70;;;;;;;-1.69;100.00;97318.19;5094957;28;20028;-68
2023/12/19 06:19:35;;;;;;;13.82;12.30;;;;;;;-1.68;100.00;97322.47;5089836;28;20046;-68
2023/12/19 06:22:00;;;;;;;15.13;13.18;;;;;;;-1.63;100.00;97322.41;5095957;28;20059;-69
2023/12/19 06:24:25;;;;;;;16.30;13.52;;;;;;;-1.59;100.00;97335.22;5090002;28;20028;-68
2023/12/19 06:26:51;;;;;;;17.60;15.77;;;;;;;-1.43;100.00;97336.69;5091569;28;20027;-68
2023/12/19 06:29:16;;;;;;;9.77;8.38;;;;;;;-1.41;100.00;97342.69;5092876;28;20024;-67
2023/12/19 06:31:46;;;;;;;11.13;8.95;;;;;;;-1.38;100.00;97352.97;5094769;28;20480;-68
2023/12/19 06:34:11;;;;;;;13.13;9.23;;;;;;;-1.40;100.00;97354.72;5090489;28;20560;-67
2023/12/19 06:36:41;;;;;;;11.30;10.07;;;;;;;-1.41;100.00;97358.19;5090151;28;20047;-66
2023/12/19 06:39:08;;;;;;;14.55;10.48;;;;;;;-1.40;100.00;97352.13;5090857;28;20474;-65
2023/12/19 06:41:33;;;;;;;15.50;11.27;;;;;;;-1.41;100.00;97347.84;5085354;28;20036;-65
2023/12/19 06:43:58;;;;;;;16.58;13.02;;;;;;;-1.38;100.00;97353.78;5091487;28;20023;-66
2023/12/19 06:46:24;;;;;;;13.00;9.57;;;;;;;-1.37;100.00;97355.50;5080891;28;20048;-65
2023/12/19 06:48:49;;;;;;;16.98;7.95;;;;;;;-1.35;100.00;97358.06;5092539;28;20020;-66
2023/12/19 06:51:27;;;;;;;15.70;11.75;;;;;;;-1.34;100.00;97354.59;5090102;28;20024;-66
2023/12/19 06:53:55;;;;;;;15.30;10.55;;;;;;;-1.38;100.00;97358.13;5089605;28;20074;-67
2023/12/19 06:56:20;;;;;;;17.88;13.80;;;;;;;-1.43;100.00;97359.94;5092168;28;20107;-66
2023/12/19 06:58:47;;;;;;;21.15;15.48;;;;;;;-1.45;100.00;97358.22;5084210;28;20056;-66
2023/12/19 07:01:14;;;;;;;33.85;22.48;;;;;;;-1.49;100.00;97355.72;5090754;28;20096;-66
2023/12/19 07:03:41;;;;;;;80.95;47.63;;;;;;;-1.48;100.00;97344.50;5087930;28;20020;-67
2023/12/19 07:06:07;;;;;;;85.68;51.88;;;;;;;-1.49;100.00;97353.16;5082825;28;20392;-68
2023/12/19 07:08:32;;;;;;;61.00;36.30;;;;;;;-1.49;100.00;97345.41;5087205;28;20100;-65
2023/12/19 07:10:57;;;;;;;37.53;24.98;;;;;;;-1.48;100.00;97345.34;5088413;28;20066;-67
2023/12/19 07:13:23;;;;;;;28.80;20.65;;;;;;;-1.51;100.00;97345.41;5087779;28;20025;-67
2023/12/19 07:15:48;;;;;;;27.75;18.42;;;;;;;-1.54;100.00;97340.31;5090008;28;20028;-67
2023/12/19 07:18:14;;;;;;;20.98;16.00;;;;;;;-1.58;100.00;97344.66;5087712;28;20036;-67
2023/12/19 07:20:39;;;;;;;23.52;14.35;;;;;;;-1.56;100.00;97344.66;5090503;28;20115;-68
2023/12/19 07:23:05;;;;;;;20.38;14.90;;;;;;;-1.53;100.00;97344.59;5095422;28;20145;-68
2023/12/19 07:25:30;;;;;;;19.33;15.43;;;;;;;-1.48;100.00;97347.94;5097075;28;21660;-68
2023/12/19 07:27:56;;;;;;;18.88;16.90;;;;;;;-1.40;100.00;97352.97;5090683;28;20020;-67
2023/12/19 07:30:21;;;;;;;17.15;14.70;;;;;;;-1.41;100.00;97345.25;5087551;28;20047;-68
2023/12/19 07:32:53;;;;;;;18.63;16.63;;;;;;;-1.44;100.00;97341.00;5091521;28;20424;-67
2023/12/19 07:35:19;;;;;;;17.02;14.95;;;;;;;-1.47;100.00;97344.47;5090073;28;20155;-67
2023/12/19 07:37:45;;;;;;;18.20;15.30;;;;;;;-1.52;100.00;97343.72;5089102;28;20016;-68
2023/12/19 07:40:12;;;;;;;16.55;14.95;;;;;;;-1.54;100.00;97339.47;5093073;28;20016;-67
2023/12/19 07:42:38;;;;;;;18.05;15.40;;;;;;;-1.56;100.00;97336.91;5090077;28;20136;-68
2023/12/19 07:45:06;;;;;;;19.63;16.20;;;;;;;-1.54;100.00;97332.56;5093783;28;20030;-67
2023/12/19 07:47:32;;;;;;;17.67;15.65;;;;;;;-1.54;100.00;97337.72;5089353;28;20027;-68
2023/12/19 07:49:58;;;;;;;18.50;16.58;;;;;;;-1.57;100.00;97327.44;5084850;28;20043;-68
2023/12/19 07:52:23;;;;;;;20.33;18.13;;;;;;;-1.60;100.00;97343.84;5088003;28;20035;-68
2023/12/19 07:54:49;;;;;;;19.85;17.48;;;;;;;-1.60;100.00;97335.25;5087888;28;20110;-68
2023/12/19 07:57:15;;;;;;;28.45;22.40;;;;;;;-1.59;100.00;97334.38;5093452;28;20094;-68
2023/12/19 07:59:41;;;;;;;32.90;28.50;;;;;;;-1.54;100.00;97336.88;5092971;28;20048;-68
2023/12/19 08:02:07;;;;;;;31.10;24.50;;;;;;;-1.57;100.00;97332.59;5092021;28;20532;-68
2023/12/19 08:04:34;;;;;;;53.33;37.90;;;;;;;-1.55;100.00;97325.69;5090008;28;20024;-68
2023/12/19 08:06:59;;;;;;;53.22;39.30;;;;;;;-1.48;100.00;97329.84;5090957;28;20107;-68
2023/12/19 08:09:26;;;;;;;43.30;30.45;;;;;;;-1.49;100.00;97324.72;5091761;28;20044;-68
2023/12/19 08:11:51;;;;;;;42.97;31.13;;;;;;;-1.48;100.00;97316.94;5093771;28;20050;-68
2023/12/19 08:14:17;;;;;;;40.97;29.63;;;;;;;-1.47;100.00;97318.63;5087932;28;20087;-67
2023/12/19 08:16:42;;;;;;;36.63;28.77;;;;;;;-1.47;100.00;97326.38;5091181;28;20047;-67
2023/12/19 08:19:08;;;;;;;39.15;28.45;;;;;;;-1.42;100.00;97315.13;5092451;28;20112;-67
2023/12/19 08:21:33;;;;;;;44.53;28.23;;;;;;;-1.43;100.00;97313.44;5086713;28;20051;-66
2023/12/19 08:23:59;;;;;;;38.70;29.85;;;;;;;-1.43;100.00;97303.94;5089085;28;20028;-66
2023/12/19 08:26:24;;;;;;;38.17;27.40;;;;;;;-1.49;100.00;97310.06;5087213;28;20024;-66
2023/12/19 08:28:50;;;;;;;33.47;27.70;;;;;;;-1.48;100.00;97298.84;5087239;28;20541;-66
2023/12/19 08:31:15;;;;;;;39.20;30.30;;;;;;;-1.39;100.00;97303.00;5082780;28;20525;-67
2023/12/19 08:33:43;;;;;;;32.10;26.48;;;;;;;-1.38;100.00;97299.53;5088334;28;20063;-67
2023/12/19 08:36:09;;;;;;;28.30;24.45;;;;;;;-1.38;100.00;97296.94;5087950;28;20613;-67
2023/12/19 08:38:34;;;;;;;32.97;27.85;;;;;;;-1.39;100.00;97295.25;5087212;28;20055;-67
2023/12/19 08:41:00;;;;;;;29.67;25.33;;;;;;;-1.42;100.00;97289.31;5087871;28;20046;-66
2023/12/19 08:43:28;;;;;;;31.48;28.02;;;;;;;-1.39;100.00;97284.06;5098211;28;20558;-67
2023/12/19 08:45:53;;;;;;;31.55;27.02;;;;;;;-1.39;100.00;97284.06;5095783;28;20091;-66
2023/12/19 08:48:19;;;;;;;29.92;24.15;;;;;;;-1.37;100.00;97283.16;5086401;28;20059;-67
2023/12/19 08:50:45;;;;;;;32.03;25.42;;;;;;;-1.34;100.00;97292.59;5089764;28;20059;-66
2023/12/19 08:53:12;;;;;;;28.73;24.95;;;;;;;-1.33;100.00;97289.13;5085799;28;20944;-67
2023/12/19 08:55:38;;;;;;;31.48;25.10;;;;;;;-1.31;100.00;97289.94;5087541;28;20053;-66
2023/12/19 08:58:04;;;;;;;27.60;24.75;;;;;;;-1.28;100.00;97292.47;5086148;28;20032;-67
2023/12/19 09:00:29;;;;;;;33.35;25.40;;;;;;;-1.29;100.00;97295.91;5091391;28;20024;-67
2023/12/19 09:02:54;;;;;;;29.35;25.00;;;;;;;-1.28;100.00;97286.44;5086168;28;20083;-67
2023/12/19 09:05:21;;;;;;;28.33;23.90;;;;;;;-1.25;100.00;97284.63;5091656;28;20039;-67
2023/12/19 09:07:47;;;;;;;29.95;22.25;;;;;;;-1.23;100.00;97282.88;5085334;28;20029;-67
2023/12/19 09:10:13;;;;;;;25.75;20.73;;;;;;;-1.16;100.00;97275.84;5082393;28;20039;-67
2023/12/19 09:12:39;;;;;;;24.05;20.63;;;;;;;-1.16;100.00;97271.56;5088032;28;20035;-67
2023/12/19 09:15:06;;;;;;;23.23;19.67;;;;;;;-1.08;100.00;97273.13;5087921;28;20020;-66
2023/12/19 09:17:31;;;;;;;27.60;21.92;;;;;;;-1.09;100.00;97268.84;5086423;28;20097;-66
2023/12/19 09:19:58;;;;;;;24.95;19.70;;;;;;;-1.13;100.00;97260.28;5088163;28;20135;-67
2023/12/19 09:22:25;;;;;;;24.20;19.85;;;;;;;-1.19;100.00;97266.44;5089527;28;20028;-67
2023/12/19 09:24:50;;;;;;;25.85;18.52;;;;;;;-1.15;100.00;97262.03;5087087;28;20039;-67
2023/12/19 09:27:16;;;;;;;22.05;18.52;;;;;;;-1.09;100.00;97258.50;5084971;28;20020;-67
2023/12/19 09:29:41;;;;;;;22.05;18.83;;;;;;;-1.08;100.00;97257.59;5091054;28;20024;-66
2023/12/19 09:32:07;;;;;;;22.80;18.50;;;;;;;-1.08;100.00;97260.19;5090119;28;20461;-66
2023/12/19 09:34:34;;;;;;;22.90;18.42;;;;;;;-1.03;100.00;97256.63;5087762;28;20044;-67
2023/12/19 09:36:59;;;;;;;19.98;17.67;;;;;;;-0.88;100.00;97246.88;5087887;28;20024;-66
2023/12/19 09:39:24;;;;;;;20.23;16.77;;;;;;;-0.47;100.00;97244.22;5088723;28;20595;-66
2023/12/19 09:41:50;;;;;;;28.30;21.13;;;;;;;0.06;100.00;97233.44;5089059;28;20051;-66
2023/12/19 09:44:16;;;;;;;28.38;21.90;;;;;;;0.61;100.00;97225.06;5091577;28;20026;-66
2023/12/19 09:46:41;;;;;;;27.20;22.02;;;;;;;1.13;100.00;97225.31;5091524;28;20024;-66
2023/12/19 09:49:10;;;;;;;27.08;22.77;;;;;;;1.61;100.00;97220.41;5085911;28;20039;-66
2023/12/19 09:51:39;;;;;;;19.73;14.95;;;;;;;1.98;100.00;97219.19;5089880;28;20034;-66
2023/12/19 09:54:05;;;;;;;20.70;15.88;;;;;;;2.35;100.00;97235.28;5088136;28;20058;-67
2023/12/19 09:56:30;;;;;;;13.93;12.43;;;;;;;2.58;100.00;97242.28;5081371;28;20024;-66
2023/12/19 09:59:00;;;;;;;9.85;8.65;;;;;;;2.86;100.00;97240.44;5091231;28;20015;-66
2023/12/19 10:01:26;;;;;;;9.57;7.68;;;;;;;3.07;100.00;97241.41;5090756;28;20028;-67
2023/12/19 10:03:55;;;;;;;9.82;8.00;;;;;;;3.40;100.00;97237.56;5090802;28;20076;-67
2023/12/19 10:06:23;;;;;;;8.57;7.78;;;;;;;3.70;100.00;97225.09;5084481;28;20028;-66
2023/12/19 10:08:52;;;;;;;7.35;6.65;;;;;;;3.97;100.00;97208.38;5094065;28;20020;-66
2023/12/19 10:11:18;;;;;;;6.95;5.38;;;;;;;4.15;100.00;97206.78;5089445;28;20036;-67
2023/12/19 10:13:46;;;;;;;6.85;6.20;;;;;;;4.27;100.00;97179.34;5090790;28;20016;-66
2023/12/19 10:16:12;;;;;;;6.43;5.72;;;;;;;4.43;100.00;97164.72;5088003;28;20073;-68
2023/12/19 10:18:39;;;;;;;6.70;5.50;;;;;;;4.56;100.00;97141.56;5091690;28;20052;-67
2023/12/19 10:21:10;;;;;;;5.45;5.05;;;;;;;4.77;100.00;97124.97;5085141;28;20023;-67
2023/12/19 10:23:38;;;;;;;4.70;4.30;;;;;;;4.97;100.00;97117.06;5088037;28;20052;-67
2023/12/19 10:26:04;;;;;;;4.93;4.43;;;;;;;5.14;100.00;97107.59;5094828;28;20053;-67
2023/12/19 10:28:32;;;;;;;5.90;5.35;;;;;;;5.30;100.00;97098.13;5089851;28;20404;-67
2023/12/19 10:31:17;;;;;;;5.85;5.25;;;;;;;5.43;100.00;97087.91;5089755;28;20185;-67
2023/12/19 10:33:48;;;;;;;4.53;4.13;;;;;;;5.55;100.00;97075.16;5088726;28;20036;-67
2023/12/19 10:36:27;;;;;;;6.63;5.60;;;;;;;5.65;100.00;97079.00;5084769;28;20036;-66
2023/12/19 10:38:54;;;;;;;7.05;4.70;;;;;;;5.89;100.00;97065.63;5090608;28;20044;-67
2023/12/19 10:41:25;;;;;;;4.43;3.60;;;;;;;6.10;100.00;97055.81;5091998;28;20624;-67
2023/12/19 10:43:53;;;;;;;6.38;2.97;;;;;;;6.34;100.00;97046.78;5089608;28;20031;-67
2023/12/19 10:46:24;;;;;;;3.15;2.95;;;;;;;6.40;100.00;97041.19;5090794;28;20062;-67
2023/12/19 10:48:54;;;;;;;2.60;2.40;;;;;;;6.51;100.00;97032.78;5091677;28;20098;-67
2023/12/19 10:51:25;;;;;;;3.45;3.10;;;;;;;6.59;100.00;97023.56;5083484;28;20042;-67
2023/12/19 10:53:58;;;;;;;4.15;3.83;;;;;;;6.72;100.00;97020.25;5089370;28;20080;-68
2023/12/19 10:56:25;;;;;;;5.88;4.38;;;;;;;6.82;100.00;97013.59;5089539;28;20055;-68
2023/12/19 10:59:04;;;;;;;3.90;3.58;;;;;;;6.96;100.00;97004.09;5088051;28;20179;-67
2023/12/19 11:01:39;;;;;;;4.35;3.97;;;;;;;7.03;100.00;97011.53;5088957;28;20028;-68
2023/12/19 11:04:15;;;;;;;7.35;4.72;;;;;;;7.28;100.00;97006.66;5090919;28;20035;-67
2023/12/19 11:06:44;;;;;;;3.00;2.80;;;;;;;7.50;100.00;97005.41;5086611;28;20032;-68
2023/12/19 11:09:17;;;;;;;3.45;3.22;;;;;;;7.65;100.00;97001.88;5087757;28;20491;-68